createdAt,value
2022-10-21T00:02:08.420Z,266.30
2022-10-21T00:04:37.415Z,337.47
2022-10-21T00:07:05.050Z,373.47
2022-10-21T00:09:32.657Z,576.20
2022-10-21T00:11:59.703Z,420.10
2022-10-21T00:19:39.466Z,176.13
2022-10-21T00:22:07.159Z,346.90
2022-10-21T00:24:35.007Z,314.10
2022-10-21T00:27:02.923Z,473.63
2022-10-21T00:29:31.084Z,292.60
2022-10-21T00:31:59.355Z,480.57
2022-10-21T00:34:30.026Z,246.87
2022-10-21T00:42:05.105Z,19.83
2022-10-21T00:44:37.655Z,113.47
2022-10-21T00:47:08.845Z,70.50
2022-10-21T00:49:39.964Z,198.00
2022-10-21T00:52:10.284Z,335.50
2022-10-21T00:54:38.892Z,153.30
2022-10-21T00:57:09.218Z,356.63
2022-10-21T01:04:03.385Z,358.33
2022-10-21T01:06:32.143Z,304.27
2022-10-21T01:09:01.368Z,632.63
2022-10-21T01:11:30.374Z,353.70
2022-10-21T01:14:24.474Z,308.87
2022-10-21T01:17:04.036Z,536.50
2022-10-21T01:20:02.513Z,528.93
2022-10-21T01:27:52.303Z,726.90
2022-10-21T01:30:41.924Z,782.63
2022-10-21T01:33:40.642Z,530.97
2022-10-21T01:36:29.933Z,763.47
2022-10-21T01:39:10.646Z,467.13
2022-10-21T01:41:44.356Z,181.73
2022-10-21T01:44:22.006Z,506.63
2022-10-21T01:51:22.322Z,446.97
2022-10-21T01:53:54.328Z,433.90
2022-10-21T01:56:22.807Z,218.40
2022-10-21T01:58:51.713Z,303.93
2022-10-21T02:01:21.150Z,326.53
2022-10-21T02:03:54.402Z,285.97
2022-10-21T02:06:22.739Z,524.37
2022-10-21T02:14:02.614Z,441.23
2022-10-21T02:16:33.061Z,379.43
2022-10-21T02:19:01.161Z,643.10
2022-10-21T02:21:37.374Z,323.90
2022-10-21T02:24:12.302Z,278.30
2022-10-21T02:26:39.703Z,359.97
2022-10-21T02:29:08.524Z,410.77
2022-10-21T02:37:41.725Z,125.23
2022-10-21T02:40:14.096Z,265.37
2022-10-21T02:42:46.268Z,258.70
2022-10-21T02:45:13.784Z,157.00
2022-10-21T02:47:44.300Z,72.40
2022-10-21T02:50:13.772Z,41.97
2022-10-21T02:56:50.094Z,132.10
2022-10-21T02:59:17.385Z,226.10
2022-10-21T03:01:48.793Z,137.60
2022-10-21T03:04:19.083Z,69.87
2022-10-21T03:06:46.351Z,154.17
2022-10-21T03:09:13.794Z,85.70
2022-10-21T03:11:41.214Z,179.30
2022-10-21T03:16:50.784Z,154.83
2022-10-21T03:19:19.664Z,293.67
2022-10-21T03:21:46.895Z,175.37
2022-10-21T03:24:25.006Z,263.77
2022-10-21T03:26:56.246Z,167.60
2022-10-21T03:29:27.384Z,195.20
2022-10-21T03:32:08.844Z,158.50
2022-10-21T03:37:25.493Z,162.83
2022-10-21T03:39:53.554Z,78.27
2022-10-21T03:42:21.943Z,58.73
2022-10-21T03:44:49.492Z,231.90
2022-10-21T03:47:16.819Z,455.73
2022-10-21T03:49:44.845Z,484.23
2022-10-21T03:52:14.390Z,461.30
2022-10-21T03:54:43.060Z,382.73
2022-10-21T04:00:16.156Z,438.70
2022-10-21T04:02:44.154Z,372.43
2022-10-21T04:05:11.726Z,756.30
2022-10-21T04:07:43.478Z,461.73
2022-10-21T04:10:11.461Z,513.00
2022-10-21T04:12:40.886Z,798.20
2022-10-21T04:15:13.162Z,687.20
2022-10-21T04:22:45.582Z,722.40
2022-10-21T04:25:13.924Z,669.57
2022-10-21T04:27:41.196Z,747.63
2022-10-21T04:30:09.693Z,358.63
2022-10-21T04:32:37.379Z,553.67
2022-10-21T04:35:05.482Z,413.73
2022-10-21T04:37:33.821Z,756.07
2022-10-21T04:42:47.514Z,446.30
2022-10-21T04:45:15.614Z,415.57
2022-10-21T04:47:44.175Z,470.17
2022-10-21T04:50:12.575Z,473.23
2022-10-21T04:52:40.506Z,380.40
2022-10-21T04:55:12.211Z,450.60
2022-10-21T04:57:40.706Z,685.70
2022-10-21T05:05:15.356Z,287.27
2022-10-21T05:07:44.757Z,551.60
2022-10-21T05:10:12.274Z,440.80
2022-10-21T05:12:39.495Z,360.30
2022-10-21T05:15:07.944Z,283.77
2022-10-21T05:17:37.845Z,399.93
2022-10-21T05:20:07.424Z,142.00
2022-10-21T05:22:37.713Z,453.90
2022-10-21T05:30:14.441Z,427.67
2022-10-21T05:32:45.559Z,378.13
2022-10-21T05:35:13.488Z,351.80
2022-10-21T05:37:40.913Z,538.07
2022-10-21T05:40:09.512Z,575.10
2022-10-21T05:42:37.243Z,456.87
2022-10-21T05:45:06.283Z,548.63
2022-10-21T05:52:38.128Z,422.07
2022-10-21T05:55:07.760Z,647.97
2022-10-21T05:57:36.560Z,478.47
2022-10-21T06:00:14.608Z,364.13
2022-10-21T06:02:41.995Z,482.40
2022-10-21T06:05:10.745Z,411.00
2022-10-21T06:07:39.629Z,346.07
2022-10-21T06:15:15.695Z,133.73
2022-10-21T06:17:45.232Z,97.67
2022-10-21T06:20:16.102Z,182.03
2022-10-21T06:22:43.804Z,89.47
2022-10-21T06:25:13.661Z,288.50
2022-10-21T06:27:41.775Z,345.67
2022-10-21T06:30:11.680Z,310.63
2022-10-21T06:32:41.572Z,238.87
2022-10-21T06:39:31.493Z,225.70
2022-10-21T06:41:58.795Z,113.83
2022-10-21T06:44:26.353Z,255.27
2022-10-21T06:46:55.135Z,76.37
2022-10-21T06:49:23.332Z,127.90
2022-10-21T06:51:51.415Z,92.60
2022-10-21T06:54:19.055Z,143.33
2022-10-21T07:01:28.003Z,136.40
2022-10-21T07:04:03.622Z,102.73
2022-10-21T07:09:01.798Z,96.27
2022-10-21T07:11:29.568Z,107.00
2022-10-21T07:13:57.949Z,181.53
2022-10-21T07:16:29.634Z,85.83
2022-10-21T07:24:11.694Z,52.87
2022-10-21T07:26:41.357Z,54.20
2022-10-21T07:29:09.416Z,52.87
2022-10-21T07:31:39.858Z,117.40
2022-10-21T07:34:10.203Z,93.97
2022-10-21T07:36:40.774Z,65.77
2022-10-21T07:39:13.224Z,63.40
2022-10-21T07:46:45.951Z,245.47
2022-10-21T07:49:14.182Z,188.97
2022-10-21T07:51:42.772Z,333.97
2022-10-21T07:54:12.155Z,137.90
2022-10-21T07:56:43.325Z,100.70
2022-10-21T07:59:13.726Z,94.37
2022-10-21T08:01:47.194Z,320.67
2022-10-21T08:09:22.335Z,161.00
2022-10-21T08:11:50.073Z,411.37
2022-10-21T08:14:17.571Z,313.23
2022-10-21T08:16:45.069Z,379.30
2022-10-21T08:19:21.332Z,389.33
2022-10-21T08:21:53.942Z,213.40
2022-10-21T08:24:23.517Z,261.27
2022-10-21T08:26:51.275Z,173.93
2022-10-21T08:34:24.677Z,188.47
2022-10-21T08:36:54.040Z,64.87
2022-10-21T08:39:24.464Z,255.90
2022-10-21T08:42:15.604Z,198.10
2022-10-21T08:44:50.704Z,32.47
2022-10-21T08:47:28.170Z,448.20
2022-10-21T08:50:01.443Z,215.77
2022-10-21T09:00:58.282Z,199.27
2022-10-21T09:03:33.862Z,262.57
2022-10-21T09:06:15.934Z,23.80
2022-10-21T09:08:57.538Z,10.87
2022-10-21T09:11:34.974Z,17.43
2022-10-21T09:14:38.513Z,13.60
2022-10-21T09:17:19.672Z,15.13
2022-10-21T09:23:07.772Z,6.43
2022-10-21T09:25:41.881Z,6.30
2022-10-21T09:28:14.865Z,3.90
2022-10-21T09:30:48.782Z,4.10
2022-10-21T09:33:22.222Z,1.93
2022-10-21T09:35:54.341Z,4.10
2022-10-21T09:38:29.554Z,2.57
2022-10-21T09:46:13.540Z,3.70
2022-10-21T09:49:22.900Z,0.93
2022-10-21T09:51:40.110Z,1.43
2022-10-21T09:54:14.354Z,2.33
2022-10-21T09:56:47.021Z,3.80
2022-10-21T09:59:21.766Z,1.03
2022-10-21T10:01:51.067Z,1.37
2022-10-21T10:09:30.574Z,4.07
2022-10-21T10:12:06.542Z,3.67
2022-10-21T10:14:36.892Z,1.33
2022-10-21T10:17:26.342Z,2.60
2022-10-21T10:20:18.675Z,6.00
2022-10-21T10:22:49.844Z,5.17
2022-10-21T10:25:24.249Z,2.83
2022-10-21T10:33:11.192Z,2.57
2022-10-21T10:35:40.094Z,1.07
2022-10-21T10:38:07.917Z,2.43
2022-10-21T10:40:41.524Z,3.57
2022-10-21T10:43:18.176Z,1.87
2022-10-21T10:45:51.864Z,3.20
2022-10-21T10:48:25.542Z,2.90
2022-10-21T10:50:58.581Z,4.77
2022-10-21T10:58:35.952Z,6.27
2022-10-21T11:01:12.242Z,4.03
2022-10-21T11:03:47.866Z,3.63
2022-10-21T11:06:19.705Z,7.57
2022-10-21T11:08:50.994Z,12.60
2022-10-21T11:11:24.871Z,17.13
2022-10-21T11:13:56.135Z,3.97
2022-10-21T11:21:47.823Z,3.80
2022-10-21T11:24:26.312Z,3.67
2022-10-21T11:27:00.544Z,9.57
2022-10-21T11:29:44.216Z,11.87
2022-10-21T11:32:28.525Z,6.27
2022-10-21T11:35:03.571Z,3.93
2022-10-21T11:37:46.712Z,5.07
2022-10-21T11:45:54.952Z,2.40
2022-10-21T11:49:05.193Z,1.90
2022-10-21T11:51:44.383Z,3.27
2022-10-21T11:54:36.622Z,3.80
2022-10-21T11:57:17.345Z,3.73
2022-10-21T12:00:15.814Z,5.87
2022-10-21T12:08:13.214Z,2.10
2022-10-21T12:10:50.073Z,0.60
2022-10-21T12:13:23.433Z,2.83
2022-10-21T12:15:56.134Z,2.83
2022-10-21T12:18:28.004Z,5.13
2022-10-21T12:20:57.264Z,5.67
2022-10-21T12:29:51.965Z,0.97
2022-10-21T12:32:28.835Z,1.37
2022-10-21T12:34:58.762Z,1.50
2022-10-21T12:38:01.856Z,1.53
2022-10-21T12:40:39.145Z,1.07
2022-10-21T12:43:16.083Z,8.57
2022-10-21T12:45:45.604Z,3.97
2022-10-21T12:53:41.861Z,0.60
2022-10-21T12:56:12.119Z,1.20
2022-10-21T12:58:45.346Z,2.87
2022-10-21T13:01:39.089Z,0.53
2022-10-21T13:04:46.904Z,1.87
2022-10-21T13:07:37.076Z,1.13
2022-10-21T13:10:27.920Z,2.60
2022-10-21T13:18:03.725Z,1.63
2022-10-21T13:21:01.710Z,0.50
2022-10-21T13:23:40.564Z,1.17
2022-10-21T13:26:24.944Z,1.93
2022-10-21T13:29:12.675Z,3.30
2022-10-21T13:31:46.662Z,0.70
2022-10-21T13:39:31.006Z,0.53
2022-10-21T13:42:02.962Z,0.90
2022-10-21T13:44:35.772Z,4.23
2022-10-21T13:47:27.689Z,4.67
2022-10-21T13:49:58.670Z,2.67
2022-10-21T13:52:30.225Z,3.30
2022-10-21T13:55:03.361Z,3.20
2022-10-21T14:11:27.645Z,5.10
2022-10-21T14:14:00.115Z,2.03
2022-10-21T14:16:33.402Z,3.20
2022-10-21T14:19:08.723Z,6.20
2022-10-21T14:22:04.163Z,2.40
2022-10-21T14:24:41.883Z,1.40
2022-10-21T14:27:17.131Z,2.10
2022-10-21T14:34:23.452Z,2.40
2022-10-21T14:37:09.163Z,8.80
2022-10-21T14:39:48.524Z,9.20
2022-10-21T14:42:20.081Z,4.63
2022-10-21T14:44:58.531Z,4.80
2022-10-21T14:47:30.841Z,7.23
2022-10-21T14:49:59.728Z,4.53
2022-10-21T14:52:45.493Z,3.80
2022-10-21T15:21:05.396Z,2.93
2022-10-21T15:28:19.622Z,2.67
2022-10-21T15:31:05.626Z,7.80
2022-10-21T16:42:00.952Z,5.20
2022-10-21T16:44:30.200Z,4.80
2022-10-21T16:47:45.812Z,8.03
2022-10-21T17:10:38.762Z,3.70
2022-10-21T17:13:06.732Z,3.47
2022-10-21T17:15:37.872Z,3.23
2022-10-21T17:18:11.781Z,8.60
2022-10-21T17:20:43.614Z,3.87
2022-10-21T17:23:12.796Z,5.67
2022-10-21T17:25:56.062Z,6.87
2022-10-21T17:31:20.228Z,5.80
2022-10-21T17:33:51.206Z,3.80
2022-10-21T17:36:21.474Z,3.37
2022-10-21T17:38:52.436Z,5.20
2022-10-21T17:41:22.717Z,5.17
2022-10-21T17:43:52.408Z,4.23
2022-10-21T17:46:24.538Z,8.07
2022-10-21T18:02:17.198Z,7.33
2022-10-21T18:04:51.609Z,8.40
2022-10-21T18:07:21.209Z,6.50
2022-10-21T18:09:50.920Z,10.00
2022-10-21T18:12:23.213Z,8.33
2022-10-21T18:15:03.834Z,9.07
2022-10-21T18:17:40.576Z,10.13
2022-10-21T18:20:12.665Z,6.77
2022-10-21T18:36:20.190Z,6.67
2022-10-21T18:39:04.469Z,6.53
2022-10-21T18:41:35.314Z,8.00
2022-10-21T18:44:09.591Z,8.17
2022-10-21T18:46:42.279Z,9.17
2022-10-21T18:49:15.341Z,5.70
2022-10-21T18:51:47.630Z,9.97
2022-10-21T18:59:42.071Z,9.87
2022-10-21T19:02:18.869Z,4.10
2022-10-21T19:05:02.773Z,9.33
2022-10-21T19:07:32.089Z,7.40
2022-10-21T19:10:06.400Z,8.20
2022-10-21T19:12:38.962Z,5.93
2022-10-21T19:15:13.531Z,10.73
2022-10-21T19:23:03.364Z,6.67
2022-10-21T19:25:33.651Z,7.87
2022-10-21T19:28:02.696Z,16.43
2022-10-21T19:30:36.369Z,10.23
2022-10-21T19:33:17.449Z,5.57
2022-10-21T19:35:49.241Z,7.03
2022-10-21T19:38:39.321Z,8.67
2022-10-21T19:46:25.779Z,8.30
2022-10-21T19:49:00.053Z,9.07
2022-10-21T19:51:31.328Z,7.70
2022-10-21T19:54:01.499Z,7.33
2022-10-21T19:56:32.112Z,7.00
2022-10-21T19:59:04.789Z,10.87
2022-10-21T20:01:38.321Z,10.33
2022-10-21T21:20:52.848Z,4.97
2022-10-21T21:30:08.025Z,4.33
2022-10-21T21:33:03.771Z,10.60
2022-10-21T22:01:58.369Z,9.57
2022-10-21T22:17:12.903Z,4.07
2022-10-21T22:36:57.050Z,4.87
2022-10-21T22:39:25.234Z,6.77
2022-10-21T22:41:52.651Z,8.23
2022-10-21T22:44:21.522Z,8.67
2022-10-21T22:46:49.015Z,8.67
2022-10-21T22:49:16.971Z,4.37
2022-10-21T22:51:45.097Z,7.37
2022-10-21T23:09:37.568Z,7.40
2022-10-21T23:12:05.409Z,6.47
2022-10-21T23:14:33.929Z,17.33
2022-10-21T23:17:01.690Z,8.17
2022-10-21T23:19:29.001Z,5.30
2022-10-21T23:21:57.162Z,13.40
2022-10-21T23:24:24.871Z,3.80
2022-10-21T23:44:18.130Z,15.33
2022-10-21T23:46:47.748Z,4.97
2022-10-21T23:49:16.784Z,7.17
2022-10-21T23:51:44.039Z,7.40
2022-10-21T23:54:13.833Z,9.43
2022-10-21T23:56:41.534Z,14.53
2022-10-21T23:59:09.172Z,8.30
